• Join FlightAware (Why Join?)
  • Login
  • US Flag 
08:15AM EDT


 

Airport Tracker/Info


-or-


 

Live Flight TrackerFlight Track Log ✈ UAL4696 ✈ 30-Mar-2014 ✈ KIND - KCLE

Flight Track Log - Related Links

Times and Time Zones

All times are in EDT time to prevent confusion due to time zone crossing. See the UAL4696 flight status page for this flight to view local times or setup timezone preferences in your user account.

Time Position Orientation Groundspeed Altitude Reporting Facility
EDT Latitude Longitude Course Direction KTS MPH feet Rate Location/Type
02:08PM 39.7333 -86.3000 74° East 167 192 1,300  Level Indianapolis TRACON
02:09PM 39.7667 -86.2500 49° Northeast 211 243 2,900 1,140 Climbing Indianapolis TRACON
02:10PM 39.7686 -86.2111 86° East 247 284 3,000 1,500 Climbing Indianapolis Center
02:11PM 39.7789 -86.1267 81° East 238 274 5,400 2,340 Climbing Indianapolis Center
02:12PM 39.7900 -86.0328 81° East 249 287 7,900 2,340 Climbing Indianapolis Center
02:13PM 39.8107 -85.6055 79° East  Level FlightAware Approximate
02:13PM 39.8019 -85.9342 81° East 269 310 10,200  Level Indianapolis Center
02:14PM 39.8378 -85.4714 74° East  Level FlightAware Approximate
02:14PM 39.8217 -85.7994 79° East 316 364 11,500  Level Indianapolis Center
02:15PM 39.8433 -85.6778 77° East 341 392 13,000 1,500 Climbing Indianapolis Center
02:16PM 39.8667 -85.5536 76° East 351 404 14,700 1,560 Climbing Indianapolis Center
02:17PM 39.9128 -85.4397 62° Northeast 354 407 16,300 1,500 Climbing Indianapolis Center
02:18PM 39.9589 -85.3244 62° Northeast 355 409 17,900 1,260 Climbing Indianapolis Center
02:19PM 40.0000 -85.2050 66° East 360 414 19,000 1,080 Climbing Indianapolis Center
02:20PM 40.0169 -85.0661 81° East 384 442 20,200 1,200 Climbing Indianapolis Center
02:21PM 40.0406 -84.8964 80° East 394 453 21,500 1,080 Climbing Indianapolis Center
02:22PM 40.0564 -84.7633 81° East 401 461 22,500 720 Climbing Indianapolis Center
02:23PM 40.0758 -84.6156 80° East 408 470 23,000 240 Climbing Indianapolis Center
02:24PM 40.1064 -84.4311 78° East 428 493 23,000  Level Indianapolis Center
02:25PM 40.1547 -84.2842 67° East 431 496 23,000  Level Indianapolis Center
02:26PM 40.2011 -84.1383 67° East 432 497 23,000  Level Indianapolis Center
02:27PM 40.2458 -83.9950 68° East 430 495 23,000  Level Indianapolis Center
02:28PM 40.2908 -83.8500 68° East 429 494 23,000 -480 Level Indianapolis Center
02:29PM 40.3347 -83.7050 68° East 428 493 22,000 -1,020 Descending Indianapolis Center
02:30PM 40.3786 -83.5650 68° East 418 481 21,000 -1,080 Descending Indianapolis Center
02:31PM 40.4319 -83.3944 68° East 418 481 19,800 -1,020 Descending Indianapolis Center
02:33PM 40.4717 -83.2594 69° East 404 465 19,000 -420 Descending Indianapolis Center
02:34PM 40.5136 -83.1239 68° East 401 461 19,000  Level Indianapolis Center
02:35PM 40.5592 -82.9883 66° East 401 461 19,000 -780 Level Indianapolis Center
02:36PM 40.6344 -82.8947 43° Northeast 368 423 17,500 -1,800 Descending Indianapolis Center
02:37PM 40.6997 -82.8094 45° Northeast 335 386 15,300 -2,340 Descending Indianapolis Center
02:38PM 40.7783 -82.7078 44° Northeast 334 384 12,700 -2,280 Descending Indianapolis Center
02:39PM 40.8475 -82.6258 42° Northeast 328 377 10,600 -1,320 Descending Indianapolis Center
02:40PM 40.9131 -82.5575 38° Northeast 304 350 10,000 -300 Descending Indianapolis Center
02:41PM 40.9811 -82.4861 38° Northeast 305 351 10,000  Level Indianapolis Center
02:42PM 41.0514 -82.4136 38° Northeast 312 359 10,000 -600 Level Indianapolis Center
02:43PM 41.1075 -82.3328 47° Northeast 253 291 8,800 -1,200 Descending Cleveland Center
02:43PM 41.1106 -82.3297 37° Northeast 236 272 8,600 -1,860 Descending Cleveland Center
02:44PM 41.1547 -82.2619 49° Northeast 233 268 6,800 -1,380 Descending Cleveland Center
02:45PM 41.1892 -82.2000 54° Northeast 226 260 5,900 -1,020 Descending Cleveland Center
02:45PM 41.1903 -82.1986 43° Northeast 217 250 5,800 -1,200 Descending Cleveland Center
02:46PM 41.2275 -82.1431 48° Northeast 212 244 4,700 -1,140 Descending Cleveland Center
02:46PM 41.2294 -82.1411 37° Northeast 197 227 4,700 -720 Level Cleveland Center
02:47PM 41.2636 -82.0881 49° Northeast 202 232 4,000 -720 Descending Cleveland Center
02:47PM 41.2692 -82.0781 54° Northeast 196 226 3,900 -120 Descending Cleveland Center
02:48PM 41.2986 -82.0322 49° Northeast 199 229 3,900  Level Cleveland Center
02:48PM 41.3058 -82.0228 44° Northeast 193 222 3,900 -780 Level Cleveland Center
02:49PM 41.3306 -81.9819 51° Northeast 188 216 3,100 -1,020 Descending Cleveland Center
02:49PM 41.3356 -81.9750 46° Northeast 166 191 2,900 -1,020 Descending Cleveland Center
02:50PM 41.3592 -81.9356 51° Northeast 172 198 2,100 -900 Descending Cleveland Center
02:50PM 41.3625 -81.9319 39° Northeast 154 177 2,000 -780 Descending Cleveland Center
02:51PM 41.3861 -81.8947 50° Northeast 155 178 1,300 -840 Descending Cleveland Center
02:51PM 41.3897 -81.8889 50° Northeast 146 168 1,200 -540 Descending Cleveland Center
02:52PM 41.4181 -81.8456 49° Northeast 150 173 800 -420 Descending Cleveland Center